sensor_id;sensor_type;location;lat;lon;timestamp;temperature;humidity
12386;DHT22;6257;57.634;18.310;2022-07-06T00:00:51;15.80;99.90
12386;DHT22;6257;57.634;18.310;2022-07-06T00:03:18;15.90;99.90
12386;DHT22;6257;57.634;18.310;2022-07-06T00:05:45;15.90;99.90
12386;DHT22;6257;57.634;18.310;2022-07-06T00:08:12;15.90;99.90
12386;DHT22;6257;57.634;18.310;2022-07-06T00:10:40;15.90;99.90
12386;DHT22;6257;57.634;18.310;2022-07-06T00:13:07;15.90;99.90
12386;DHT22;6257;57.634;18.310;2022-07-06T00:15:34;16.00;99.90
12386;DHT22;6257;57.634;18.310;2022-07-06T00:18:01;15.90;99.90
12386;DHT22;6257;57.634;18.310;2022-07-06T00:20:28;16.00;99.90
12386;DHT22;6257;57.634;18.310;2022-07-06T00:22:55;15.90;99.90
12386;DHT22;6257;57.634;18.310;2022-07-06T00:25:22;16.00;99.90
12386;DHT22;6257;57.634;18.310;2022-07-06T00:27:51;16.00;99.90
12386;DHT22;6257;57.634;18.310;2022-07-06T00:30:18;15.90;99.90
12386;DHT22;6257;57.634;18.310;2022-07-06T00:32:45;15.80;99.90
12386;DHT22;6257;57.634;18.310;2022-07-06T00:35:12;15.80;99.90
12386;DHT22;6257;57.634;18.310;2022-07-06T00:37:39;15.70;99.90
12386;DHT22;6257;57.634;18.310;2022-07-06T00:40:07;15.90;99.90
12386;DHT22;6257;57.634;18.310;2022-07-06T00:42:39;15.90;99.90
12386;DHT22;6257;57.634;18.310;2022-07-06T00:45:09;15.80;99.90
12386;DHT22;6257;57.634;18.310;2022-07-06T00:47:36;15.70;99.90
12386;DHT22;6257;57.634;18.310;2022-07-06T00:50:05;15.70;99.90
12386;DHT22;6257;57.634;18.310;2022-07-06T00:52:45;15.70;99.90
12386;DHT22;6257;57.634;18.310;2022-07-06T00:55:14;15.60;99.90
12386;DHT22;6257;57.634;18.310;2022-07-06T00:57:41;15.60;99.90
12386;DHT22;6257;57.634;18.310;2022-07-06T01:00:12;15.50;99.90
12386;DHT22;6257;57.634;18.310;2022-07-06T01:02:39;15.40;99.90
12386;DHT22;6257;57.634;18.310;2022-07-06T01:05:11;15.40;99.90
12386;DHT22;6257;57.634;18.310;2022-07-06T01:07:40;15.40;99.90
12386;DHT22;6257;57.634;18.310;2022-07-06T01:10:09;15.50;99.90
12386;DHT22;6257;57.634;18.310;2022-07-06T01:12:37;15.50;99.90
12386;DHT22;6257;57.634;18.310;2022-07-06T01:15:06;15.40;99.90
12386;DHT22;6257;57.634;18.310;2022-07-06T01:17:35;15.30;99.90
12386;DHT22;6257;57.634;18.310;2022-07-06T01:20:10;15.40;99.90
12386;DHT22;6257;57.634;18.310;2022-07-06T01:22:37;15.40;99.90
12386;DHT22;6257;57.634;18.310;2022-07-06T01:25:05;15.40;99.90
12386;DHT22;6257;57.634;18.310;2022-07-06T01:27:33;15.30;99.90
12386;DHT22;6257;57.634;18.310;2022-07-06T01:30:04;15.30;99.90
12386;DHT22;6257;57.634;18.310;2022-07-06T01:32:31;15.30;99.90
12386;DHT22;6257;57.634;18.310;2022-07-06T01:34:59;15.30;99.90
12386;DHT22;6257;57.634;18.310;2022-07-06T01:37:28;15.30;99.90
12386;DHT22;6257;57.634;18.310;2022-07-06T01:39:58;15.30;99.90
12386;DHT22;6257;57.634;18.310;2022-07-06T01:42:25;15.30;99.90
12386;DHT22;6257;57.634;18.310;2022-07-06T01:44:52;15.30;99.90
12386;DHT22;6257;57.634;18.310;2022-07-06T01:47:19;15.40;99.90
12386;DHT22;6257;57.634;18.310;2022-07-06T01:49:46;15.30;99.90
12386;DHT22;6257;57.634;18.310;2022-07-06T01:52:13;15.20;99.90
12386;DHT22;6257;57.634;18.310;2022-07-06T01:54:42;15.20;99.90
12386;DHT22;6257;57.634;18.310;2022-07-06T01:57:09;15.10;99.90
12386;DHT22;6257;57.634;18.310;2022-07-06T01:59:36;15.10;99.90
12386;DHT22;6257;57.634;18.310;2022-07-06T02:02:03;15.20;99.90
12386;DHT22;6257;57.634;18.310;2022-07-06T02:04:33;15.20;99.90
12386;DHT22;6257;57.634;18.310;2022-07-06T02:07:00;15.20;99.90
12386;DHT22;6257;57.634;18.310;2022-07-06T02:09:27;15.20;99.90
12386;DHT22;6257;57.634;18.310;2022-07-06T02:11:56;15.10;99.90
12386;DHT22;6257;57.634;18.310;2022-07-06T02:14:23;15.10;99.90
12386;DHT22;6257;57.634;18.310;2022-07-06T02:16:50;15.10;99.90
12386;DHT22;6257;57.634;18.310;2022-07-06T02:19:17;15.10;99.90
12386;DHT22;6257;57.634;18.310;2022-07-06T02:21:44;15.10;99.90
12386;DHT22;6257;57.634;18.310;2022-07-06T02:24:11;15.10;99.90
12386;DHT22;6257;57.634;18.310;2022-07-06T02:26:38;15.10;99.90
12386;DHT22;6257;57.634;18.310;2022-07-06T02:29:07;15.10;99.90
12386;DHT22;6257;57.634;18.310;2022-07-06T02:31:34;15.10;99.90
12386;DHT22;6257;57.634;18.310;2022-07-06T02:34:01;15.10;99.90
12386;DHT22;6257;57.634;18.310;2022-07-06T02:36:28;15.10;99.90
12386;DHT22;6257;57.634;18.310;2022-07-06T02:38:55;15.10;99.90
12386;DHT22;6257;57.634;18.310;2022-07-06T02:41:22;15.10;99.90
12386;DHT22;6257;57.634;18.310;2022-07-06T02:43:49;15.10;99.90
12386;DHT22;6257;57.634;18.310;2022-07-06T02:48:45;15.10;99.90
12386;DHT22;6257;57.634;18.310;2022-07-06T02:51:12;15.10;99.90
12386;DHT22;6257;57.634;18.310;2022-07-06T02:53:39;15.00;99.90
12386;DHT22;6257;57.634;18.310;2022-07-06T02:56:06;15.00;99.90
12386;DHT22;6257;57.634;18.310;2022-07-06T02:58:34;14.90;99.90
12386;DHT22;6257;57.634;18.310;2022-07-06T03:01:01;14.90;99.90
12386;DHT22;6257;57.634;18.310;2022-07-06T03:03:29;14.90;99.90
12386;DHT22;6257;57.634;18.310;2022-07-06T03:05:56;15.00;99.90
12386;DHT22;6257;57.634;18.310;2022-07-06T03:08:23;15.00;99.90
12386;DHT22;6257;57.634;18.310;2022-07-06T03:10:50;15.00;99.90
12386;DHT22;6257;57.634;18.310;2022-07-06T03:13:17;15.10;99.90
12386;DHT22;6257;57.634;18.310;2022-07-06T03:15:44;15.10;99.90
12386;DHT22;6257;57.634;18.310;2022-07-06T03:18:11;15.10;99.90
12386;DHT22;6257;57.634;18.310;2022-07-06T03:20:40;15.20;99.90
12386;DHT22;6257;57.634;18.310;2022-07-06T03:23:06;15.10;99.90
12386;DHT22;6257;57.634;18.310;2022-07-06T03:25:34;15.20;99.90
12386;DHT22;6257;57.634;18.310;2022-07-06T03:28:01;15.20;99.90
12386;DHT22;6257;57.634;18.310;2022-07-06T03:30:28;15.20;99.90
12386;DHT22;6257;57.634;18.310;2022-07-06T03:32:55;15.30;99.90
12386;DHT22;6257;57.634;18.310;2022-07-06T03:35:22;15.30;99.90
12386;DHT22;6257;57.634;18.310;2022-07-06T03:37:50;15.30;99.90
12386;DHT22;6257;57.634;18.310;2022-07-06T03:40:17;15.30;99.90
12386;DHT22;6257;57.634;18.310;2022-07-06T03:42:44;15.30;99.90
12386;DHT22;6257;57.634;18.310;2022-07-06T03:45:11;15.30;99.90
12386;DHT22;6257;57.634;18.310;2022-07-06T03:47:38;15.40;99.90
12386;DHT22;6257;57.634;18.310;2022-07-06T03:50:07;15.40;99.90
12386;DHT22;6257;57.634;18.310;2022-07-06T03:52:34;15.50;99.90
12386;DHT22;6257;57.634;18.310;2022-07-06T03:55:08;15.50;99.90
12386;DHT22;6257;57.634;18.310;2022-07-06T03:57:35;15.40;99.90
12386;DHT22;6257;57.634;18.310;2022-07-06T04:00:03;15.40;99.90
12386;DHT22;6257;57.634;18.310;2022-07-06T04:02:30;15.40;99.90
12386;DHT22;6257;57.634;18.310;2022-07-06T04:04:57;15.50;99.90
12386;DHT22;6257;57.634;18.310;2022-07-06T04:07:24;15.60;99.90
12386;DHT22;6257;57.634;18.310;2022-07-06T04:09:52;15.60;99.90
12386;DHT22;6257;57.634;18.310;2022-07-06T04:12:20;15.60;99.90
12386;DHT22;6257;57.634;18.310;2022-07-06T04:14:47;15.50;99.90
12386;DHT22;6257;57.634;18.310;2022-07-06T04:17:14;15.40;99.90
12386;DHT22;6257;57.634;18.310;2022-07-06T04:19:59;15.50;99.90
12386;DHT22;6257;57.634;18.310;2022-07-06T04:22:25;15.60;99.90
12386;DHT22;6257;57.634;18.310;2022-07-06T04:24:53;15.70;99.90
12386;DHT22;6257;57.634;18.310;2022-07-06T04:27:21;15.70;99.90
12386;DHT22;6257;57.634;18.310;2022-07-06T04:29:48;15.70;99.90
12386;DHT22;6257;57.634;18.310;2022-07-06T04:32:15;15.70;99.90
12386;DHT22;6257;57.634;18.310;2022-07-06T04:34:42;15.70;99.90
12386;DHT22;6257;57.634;18.310;2022-07-06T04:37:09;15.80;99.90
12386;DHT22;6257;57.634;18.310;2022-07-06T04:39:36;15.80;99.90
12386;DHT22;6257;57.634;18.310;2022-07-06T04:42:03;15.80;99.90
12386;DHT22;6257;57.634;18.310;2022-07-06T04:44:34;15.70;99.90
12386;DHT22;6257;57.634;18.310;2022-07-06T04:47:01;15.70;99.90
12386;DHT22;6257;57.634;18.310;2022-07-06T04:49:28;15.60;99.90
12386;DHT22;6257;57.634;18.310;2022-07-06T04:51:55;15.60;99.90
12386;DHT22;6257;57.634;18.310;2022-07-06T04:54:22;15.50;99.90
12386;DHT22;6257;57.634;18.310;2022-07-06T04:56:49;15.60;99.90
12386;DHT22;6257;57.634;18.310;2022-07-06T04:59:16;15.80;99.90
12386;DHT22;6257;57.634;18.310;2022-07-06T05:01:45;15.90;99.90
12386;DHT22;6257;57.634;18.310;2022-07-06T05:04:12;16.00;99.90
12386;DHT22;6257;57.634;18.310;2022-07-06T05:06:39;16.00;99.90
12386;DHT22;6257;57.634;18.310;2022-07-06T05:09:06;16.00;99.90
12386;DHT22;6257;57.634;18.310;2022-07-06T05:11:33;16.10;99.90
12386;DHT22;6257;57.634;18.310;2022-07-06T05:14:01;16.00;99.90
12386;DHT22;6257;57.634;18.310;2022-07-06T05:16:28;16.10;99.90
12386;DHT22;6257;57.634;18.310;2022-07-06T05:18:56;16.30;99.90
12386;DHT22;6257;57.634;18.310;2022-07-06T05:21:23;17.30;99.90
12386;DHT22;6257;57.634;18.310;2022-07-06T05:23:50;16.00;99.90
12386;DHT22;6257;57.634;18.310;2022-07-06T05:26:17;16.00;99.90
12386;DHT22;6257;57.634;18.310;2022-07-06T05:28:44;16.00;99.90
12386;DHT22;6257;57.634;18.310;2022-07-06T05:31:11;16.10;99.90
12386;DHT22;6257;57.634;18.310;2022-07-06T05:33:38;16.20;99.90
12386;DHT22;6257;57.634;18.310;2022-07-06T05:36:07;16.30;99.90
12386;DHT22;6257;57.634;18.310;2022-07-06T05:38:34;16.20;99.90
12386;DHT22;6257;57.634;18.310;2022-07-06T05:41:01;16.10;99.90
12386;DHT22;6257;57.634;18.310;2022-07-06T05:43:28;16.20;99.90
12386;DHT22;6257;57.634;18.310;2022-07-06T05:45:55;16.30;99.90
12386;DHT22;6257;57.634;18.310;2022-07-06T05:48:22;16.50;99.90
12386;DHT22;6257;57.634;18.310;2022-07-06T05:51:08;16.60;99.90
12386;DHT22;6257;57.634;18.310;2022-07-06T05:53:35;16.70;99.90
12386;DHT22;6257;57.634;18.310;2022-07-06T05:56:02;16.90;99.90
12386;DHT22;6257;57.634;18.310;2022-07-06T05:58:29;17.00;99.90
12386;DHT22;6257;57.634;18.310;2022-07-06T06:00:56;17.00;99.90
12386;DHT22;6257;57.634;18.310;2022-07-06T06:03:23;17.10;99.90
12386;DHT22;6257;57.634;18.310;2022-07-06T06:05:50;17.20;99.90
12386;DHT22;6257;57.634;18.310;2022-07-06T06:08:19;17.30;99.90
12386;DHT22;6257;57.634;18.310;2022-07-06T06:10:46;17.10;99.90
12386;DHT22;6257;57.634;18.310;2022-07-06T06:13:14;17.00;99.90
12386;DHT22;6257;57.634;18.310;2022-07-06T06:15:41;16.90;99.90
12386;DHT22;6257;57.634;18.310;2022-07-06T06:18:08;16.80;99.90
12386;DHT22;6257;57.634;18.310;2022-07-06T06:20:35;16.70;99.90
12386;DHT22;6257;57.634;18.310;2022-07-06T06:23:02;16.70;99.90
12386;DHT22;6257;57.634;18.310;2022-07-06T06:25:33;16.70;99.90
12386;DHT22;6257;57.634;18.310;2022-07-06T06:28:02;16.80;99.90
12386;DHT22;6257;57.634;18.310;2022-07-06T06:30:29;16.80;99.90
12386;DHT22;6257;57.634;18.310;2022-07-06T06:33:10;16.90;99.90
12386;DHT22;6257;57.634;18.310;2022-07-06T06:35:38;16.90;99.90
12386;DHT22;6257;57.634;18.310;2022-07-06T06:38:05;16.80;99.90
12386;DHT22;6257;57.634;18.310;2022-07-06T06:40:34;16.70;99.90
12386;DHT22;6257;57.634;18.310;2022-07-06T06:43:01;16.80;99.90
12386;DHT22;6257;57.634;18.310;2022-07-06T06:45:29;17.00;99.90
12386;DHT22;6257;57.634;18.310;2022-07-06T06:47:56;17.10;99.90
12386;DHT22;6257;57.634;18.310;2022-07-06T06:50:23;17.00;99.90
12386;DHT22;6257;57.634;18.310;2022-07-06T06:52:50;17.00;99.90
12386;DHT22;6257;57.634;18.310;2022-07-06T06:55:17;17.00;99.90
12386;DHT22;6257;57.634;18.310;2022-07-06T06:57:46;17.10;99.90
12386;DHT22;6257;57.634;18.310;2022-07-06T07:00:14;17.10;99.90
12386;DHT22;6257;57.634;18.310;2022-07-06T07:02:41;17.00;99.90
12386;DHT22;6257;57.634;18.310;2022-07-06T07:05:08;16.90;99.90
12386;DHT22;6257;57.634;18.310;2022-07-06T07:07:35;16.90;99.90
12386;DHT22;6257;57.634;18.310;2022-07-06T07:10:04;17.00;99.90
12386;DHT22;6257;57.634;18.310;2022-07-06T07:12:31;17.20;99.90
12386;DHT22;6257;57.634;18.310;2022-07-06T07:15:00;17.40;99.90
12386;DHT22;6257;57.634;18.310;2022-07-06T07:17:27;17.20;99.90
12386;DHT22;6257;57.634;18.310;2022-07-06T07:19:54;17.80;99.90
12386;DHT22;6257;57.634;18.310;2022-07-06T07:22:22;17.80;99.90
12386;DHT22;6257;57.634;18.310;2022-07-06T07:24:50;17.60;99.90
12386;DHT22;6257;57.634;18.310;2022-07-06T07:27:17;17.30;99.90
12386;DHT22;6257;57.634;18.310;2022-07-06T07:29:44;17.30;99.90
12386;DHT22;6257;57.634;18.310;2022-07-06T07:32:12;17.50;99.90
12386;DHT22;6257;57.634;18.310;2022-07-06T07:34:39;17.60;99.90
12386;DHT22;6257;57.634;18.310;2022-07-06T07:37:06;17.90;99.90
12386;DHT22;6257;57.634;18.310;2022-07-06T07:39:33;17.90;99.90
12386;DHT22;6257;57.634;18.310;2022-07-06T07:42:00;17.80;99.90
12386;DHT22;6257;57.634;18.310;2022-07-06T07:44:27;18.00;99.90
12386;DHT22;6257;57.634;18.310;2022-07-06T07:46:54;17.60;99.90
12386;DHT22;6257;57.634;18.310;2022-07-06T07:49:23;17.80;99.90
12386;DHT22;6257;57.634;18.310;2022-07-06T07:51:50;17.70;99.90
12386;DHT22;6257;57.634;18.310;2022-07-06T07:54:17;17.50;99.90
12386;DHT22;6257;57.634;18.310;2022-07-06T07:56:44;17.40;99.90
12386;DHT22;6257;57.634;18.310;2022-07-06T07:59:12;17.40;99.90
12386;DHT22;6257;57.634;18.310;2022-07-06T08:01:39;17.30;99.90
12386;DHT22;6257;57.634;18.310;2022-07-06T08:04:06;17.50;99.90
12386;DHT22;6257;57.634;18.310;2022-07-06T08:06:34;18.30;99.90
12386;DHT22;6257;57.634;18.310;2022-07-06T08:09:01;18.90;99.90
12386;DHT22;6257;57.634;18.310;2022-07-06T08:11:30;19.20;99.90
12386;DHT22;6257;57.634;18.310;2022-07-06T08:13:57;20.00;99.90
12386;DHT22;6257;57.634;18.310;2022-07-06T08:16:24;21.20;99.90
12386;DHT22;6257;57.634;18.310;2022-07-06T08:18:51;22.20;99.90
12386;DHT22;6257;57.634;18.310;2022-07-06T08:21:19;22.80;99.90
12386;DHT22;6257;57.634;18.310;2022-07-06T08:23:47;22.50;99.90
12386;DHT22;6257;57.634;18.310;2022-07-06T08:26:14;21.60;99.90
12386;DHT22;6257;57.634;18.310;2022-07-06T08:28:41;20.70;99.90
12386;DHT22;6257;57.634;18.310;2022-07-06T08:31:08;20.40;99.90
12386;DHT22;6257;57.634;18.310;2022-07-06T08:33:36;19.20;99.90
12386;DHT22;6257;57.634;18.310;2022-07-06T08:36:03;18.50;99.90
12386;DHT22;6257;57.634;18.310;2022-07-06T08:38:30;18.30;99.90
12386;DHT22;6257;57.634;18.310;2022-07-06T08:40:58;18.60;99.90
12386;DHT22;6257;57.634;18.310;2022-07-06T08:43:25;18.90;99.90
12386;DHT22;6257;57.634;18.310;2022-07-06T08:45:54;19.10;99.90
12386;DHT22;6257;57.634;18.310;2022-07-06T08:48:23;19.50;99.90
12386;DHT22;6257;57.634;18.310;2022-07-06T08:50:51;19.60;99.90
12386;DHT22;6257;57.634;18.310;2022-07-06T08:53:19;19.60;99.90
12386;DHT22;6257;57.634;18.310;2022-07-06T08:55:48;19.70;99.90
12386;DHT22;6257;57.634;18.310;2022-07-06T08:58:17;19.70;99.90
12386;DHT22;6257;57.634;18.310;2022-07-06T09:00:45;19.80;99.90
12386;DHT22;6257;57.634;18.310;2022-07-06T09:03:12;19.70;99.90
12386;DHT22;6257;57.634;18.310;2022-07-06T09:05:40;19.40;99.90
12386;DHT22;6257;57.634;18.310;2022-07-06T09:08:07;19.00;99.90
12386;DHT22;6257;57.634;18.310;2022-07-06T09:10:34;18.60;99.90
12386;DHT22;6257;57.634;18.310;2022-07-06T09:13:04;18.30;99.90
12386;DHT22;6257;57.634;18.310;2022-07-06T09:15:34;18.20;99.90
12386;DHT22;6257;57.634;18.310;2022-07-06T09:18:02;18.40;99.90
12386;DHT22;6257;57.634;18.310;2022-07-06T09:20:30;18.50;99.90
12386;DHT22;6257;57.634;18.310;2022-07-06T09:22:58;18.60;99.90
12386;DHT22;6257;57.634;18.310;2022-07-06T09:25:27;18.70;99.90
12386;DHT22;6257;57.634;18.310;2022-07-06T09:27:56;18.80;99.90
12386;DHT22;6257;57.634;18.310;2022-07-06T09:30:25;18.90;99.90
12386;DHT22;6257;57.634;18.310;2022-07-06T09:32:55;18.70;99.90
12386;DHT22;6257;57.634;18.310;2022-07-06T09:35:24;18.70;99.90
12386;DHT22;6257;57.634;18.310;2022-07-06T09:38:02;18.90;99.90
12386;DHT22;6257;57.634;18.310;2022-07-06T09:40:31;19.00;99.90
12386;DHT22;6257;57.634;18.310;2022-07-06T09:43:09;18.80;99.90
12386;DHT22;6257;57.634;18.310;2022-07-06T09:45:40;18.60;99.90
12386;DHT22;6257;57.634;18.310;2022-07-06T09:48:11;18.70;99.90
12386;DHT22;6257;57.634;18.310;2022-07-06T09:50:40;18.80;99.90
12386;DHT22;6257;57.634;18.310;2022-07-06T09:53:07;18.50;99.90
12386;DHT22;6257;57.634;18.310;2022-07-06T09:55:34;18.30;99.90
12386;DHT22;6257;57.634;18.310;2022-07-06T09:58:02;18.10;99.90
12386;DHT22;6257;57.634;18.310;2022-07-06T10:00:29;18.10;99.90
12386;DHT22;6257;57.634;18.310;2022-07-06T10:02:57;18.10;99.90
12386;DHT22;6257;57.634;18.310;2022-07-06T10:05:26;17.90;99.90
12386;DHT22;6257;57.634;18.310;2022-07-06T10:07:57;17.80;99.90
12386;DHT22;6257;57.634;18.310;2022-07-06T10:10:25;18.00;99.90
12386;DHT22;6257;57.634;18.310;2022-07-06T10:12:55;18.20;99.90
12386;DHT22;6257;57.634;18.310;2022-07-06T10:15:22;18.40;99.90
12386;DHT22;6257;57.634;18.310;2022-07-06T10:17:51;18.40;99.90
12386;DHT22;6257;57.634;18.310;2022-07-06T10:20:20;18.50;99.90
12386;DHT22;6257;57.634;18.310;2022-07-06T10:22:49;18.60;99.90
12386;DHT22;6257;57.634;18.310;2022-07-06T10:25:17;18.60;99.90
12386;DHT22;6257;57.634;18.310;2022-07-06T10:27:46;18.60;99.90
12386;DHT22;6257;57.634;18.310;2022-07-06T10:30:14;18.80;99.90
12386;DHT22;6257;57.634;18.310;2022-07-06T10:32:44;18.80;99.90
12386;DHT22;6257;57.634;18.310;2022-07-06T10:35:13;18.80;99.90
12386;DHT22;6257;57.634;18.310;2022-07-06T10:37:40;18.60;99.90
12386;DHT22;6257;57.634;18.310;2022-07-06T10:40:13;18.60;99.90
12386;DHT22;6257;57.634;18.310;2022-07-06T10:42:59;18.70;99.90
12386;DHT22;6257;57.634;18.310;2022-07-06T10:45:52;18.80;99.90
12386;DHT22;6257;57.634;18.310;2022-07-06T10:48:22;19.00;99.90
12386;DHT22;6257;57.634;18.310;2022-07-06T10:50:51;19.00;99.90
12386;DHT22;6257;57.634;18.310;2022-07-06T10:53:22;18.90;99.90
12386;DHT22;6257;57.634;18.310;2022-07-06T10:55:52;18.90;99.90
12386;DHT22;6257;57.634;18.310;2022-07-06T10:58:50;18.80;99.90
12386;DHT22;6257;57.634;18.310;2022-07-06T11:01:19;18.70;99.90
12386;DHT22;6257;57.634;18.310;2022-07-06T11:03:47;18.60;99.90
12386;DHT22;6257;57.634;18.310;2022-07-06T11:06:17;18.70;99.90
12386;DHT22;6257;57.634;18.310;2022-07-06T11:08:49;18.80;99.90
12386;DHT22;6257;57.634;18.310;2022-07-06T11:11:19;18.80;99.90
12386;DHT22;6257;57.634;18.310;2022-07-06T11:13:58;18.90;99.90
12386;DHT22;6257;57.634;18.310;2022-07-06T11:16:28;19.00;99.90
12386;DHT22;6257;57.634;18.310;2022-07-06T11:19:05;19.10;99.90
12386;DHT22;6257;57.634;18.310;2022-07-06T11:21:39;19.20;99.90
12386;DHT22;6257;57.634;18.310;2022-07-06T11:24:08;19.30;99.90
12386;DHT22;6257;57.634;18.310;2022-07-06T11:26:37;19.20;99.90
12386;DHT22;6257;57.634;18.310;2022-07-06T11:29:05;19.20;99.90
12386;DHT22;6257;57.634;18.310;2022-07-06T11:31:34;19.20;99.90
12386;DHT22;6257;57.634;18.310;2022-07-06T11:34:02;19.20;99.90
12386;DHT22;6257;57.634;18.310;2022-07-06T11:36:29;19.20;99.90
12386;DHT22;6257;57.634;18.310;2022-07-06T11:38:57;19.30;99.90
12386;DHT22;6257;57.634;18.310;2022-07-06T11:41:24;19.30;99.90
12386;DHT22;6257;57.634;18.310;2022-07-06T11:43:52;19.40;99.90
12386;DHT22;6257;57.634;18.310;2022-07-06T11:46:24;19.50;99.90
12386;DHT22;6257;57.634;18.310;2022-07-06T11:48:52;19.50;99.90
12386;DHT22;6257;57.634;18.310;2022-07-06T11:51:20;19.40;99.90
12386;DHT22;6257;57.634;18.310;2022-07-06T11:53:49;19.50;99.90
12386;DHT22;6257;57.634;18.310;2022-07-06T11:56:17;19.40;99.90
12386;DHT22;6257;57.634;18.310;2022-07-06T11:58:49;19.30;99.90
12386;DHT22;6257;57.634;18.310;2022-07-06T12:01:18;19.20;99.90
12386;DHT22;6257;57.634;18.310;2022-07-06T12:03:46;19.10;99.90
12386;DHT22;6257;57.634;18.310;2022-07-06T12:06:16;19.10;99.90
12386;DHT22;6257;57.634;18.310;2022-07-06T12:08:45;19.00;99.90
12386;DHT22;6257;57.634;18.310;2022-07-06T12:11:20;19.10;99.90
12386;DHT22;6257;57.634;18.310;2022-07-06T12:13:48;19.10;99.90
12386;DHT22;6257;57.634;18.310;2022-07-06T12:16:17;19.20;99.90
12386;DHT22;6257;57.634;18.310;2022-07-06T12:18:47;19.30;99.90
12386;DHT22;6257;57.634;18.310;2022-07-06T12:21:17;19.40;99.90
12386;DHT22;6257;57.634;18.310;2022-07-06T12:23:45;19.40;99.90
12386;DHT22;6257;57.634;18.310;2022-07-06T12:26:13;19.40;99.90
12386;DHT22;6257;57.634;18.310;2022-07-06T12:28:41;19.40;99.90
12386;DHT22;6257;57.634;18.310;2022-07-06T12:31:09;19.40;99.90
12386;DHT22;6257;57.634;18.310;2022-07-06T12:33:38;19.40;99.90
12386;DHT22;6257;57.634;18.310;2022-07-06T12:36:13;19.30;99.90
12386;DHT22;6257;57.634;18.310;2022-07-06T12:38:47;19.30;99.90
12386;DHT22;6257;57.634;18.310;2022-07-06T12:41:30;19.40;99.90
12386;DHT22;6257;57.634;18.310;2022-07-06T12:44:03;19.40;99.90
12386;DHT22;6257;57.634;18.310;2022-07-06T12:46:32;19.40;99.90
12386;DHT22;6257;57.634;18.310;2022-07-06T12:49:02;19.30;99.90
12386;DHT22;6257;57.634;18.310;2022-07-06T12:51:51;19.30;99.90
12386;DHT22;6257;57.634;18.310;2022-07-06T12:54:20;19.40;99.90
12386;DHT22;6257;57.634;18.310;2022-07-06T12:57:09;19.30;99.90
12386;DHT22;6257;57.634;18.310;2022-07-06T12:59:39;19.40;99.90
12386;DHT22;6257;57.634;18.310;2022-07-06T13:02:08;19.40;99.90
12386;DHT22;6257;57.634;18.310;2022-07-06T13:04:37;19.50;99.90
12386;DHT22;6257;57.634;18.310;2022-07-06T13:07:04;19.50;99.90
12386;DHT22;6257;57.634;18.310;2022-07-06T13:09:32;19.50;99.90
12386;DHT22;6257;57.634;18.310;2022-07-06T13:11:59;19.60;99.90
12386;DHT22;6257;57.634;18.310;2022-07-06T13:14:26;19.80;99.90
12386;DHT22;6257;57.634;18.310;2022-07-06T13:16:53;19.80;99.90
12386;DHT22;6257;57.634;18.310;2022-07-06T13:19:20;19.80;99.90
12386;DHT22;6257;57.634;18.310;2022-07-06T13:21:49;19.70;99.90
12386;DHT22;6257;57.634;18.310;2022-07-06T13:24:16;19.70;99.90
12386;DHT22;6257;57.634;18.310;2022-07-06T13:26:43;19.80;99.90
12386;DHT22;6257;57.634;18.310;2022-07-06T13:29:10;19.80;99.90
12386;DHT22;6257;57.634;18.310;2022-07-06T13:31:38;19.90;99.90
12386;DHT22;6257;57.634;18.310;2022-07-06T13:34:06;19.90;99.90
12386;DHT22;6257;57.634;18.310;2022-07-06T13:36:33;19.80;99.90
12386;DHT22;6257;57.634;18.310;2022-07-06T13:39:03;19.70;99.90
12386;DHT22;6257;57.634;18.310;2022-07-06T13:41:30;19.70;99.90
12386;DHT22;6257;57.634;18.310;2022-07-06T13:43:57;19.70;99.90
12386;DHT22;6257;57.634;18.310;2022-07-06T13:46:26;19.80;99.90
12386;DHT22;6257;57.634;18.310;2022-07-06T13:48:53;19.90;99.90
12386;DHT22;6257;57.634;18.310;2022-07-06T13:51:22;20.00;99.90
12386;DHT22;6257;57.634;18.310;2022-07-06T13:53:49;20.00;99.90
12386;DHT22;6257;57.634;18.310;2022-07-06T13:56:18;20.10;99.90
12386;DHT22;6257;57.634;18.310;2022-07-06T13:58:45;20.10;99.90
12386;DHT22;6257;57.634;18.310;2022-07-06T14:01:13;20.20;99.90
12386;DHT22;6257;57.634;18.310;2022-07-06T14:03:40;20.20;99.90
12386;DHT22;6257;57.634;18.310;2022-07-06T14:06:08;20.20;99.90
12386;DHT22;6257;57.634;18.310;2022-07-06T14:08:35;20.20;99.90
12386;DHT22;6257;57.634;18.310;2022-07-06T14:11:03;20.20;99.90
12386;DHT22;6257;57.634;18.310;2022-07-06T14:13:32;20.20;99.90
12386;DHT22;6257;57.634;18.310;2022-07-06T14:15:59;20.30;99.90
12386;DHT22;6257;57.634;18.310;2022-07-06T14:18:26;20.30;99.90
12386;DHT22;6257;57.634;18.310;2022-07-06T14:20:53;20.50;99.90
12386;DHT22;6257;57.634;18.310;2022-07-06T14:23:21;20.60;99.90
12386;DHT22;6257;57.634;18.310;2022-07-06T14:25:49;20.70;99.90
12386;DHT22;6257;57.634;18.310;2022-07-06T14:28:17;20.70;99.90
12386;DHT22;6257;57.634;18.310;2022-07-06T14:30:46;20.70;99.90
12386;DHT22;6257;57.634;18.310;2022-07-06T14:33:14;20.60;99.90
12386;DHT22;6257;57.634;18.310;2022-07-06T14:35:43;20.60;99.90
12386;DHT22;6257;57.634;18.310;2022-07-06T14:38:11;20.70;99.90
12386;DHT22;6257;57.634;18.310;2022-07-06T14:40:38;20.70;99.90
12386;DHT22;6257;57.634;18.310;2022-07-06T14:43:05;20.70;99.90
12386;DHT22;6257;57.634;18.310;2022-07-06T14:45:32;20.70;99.90
12386;DHT22;6257;57.634;18.310;2022-07-06T14:48:01;20.80;99.90
12386;DHT22;6257;57.634;18.310;2022-07-06T14:50:28;20.80;99.90
12386;DHT22;6257;57.634;18.310;2022-07-06T14:52:55;20.80;99.90
12386;DHT22;6257;57.634;18.310;2022-07-06T14:55:23;20.80;99.90
12386;DHT22;6257;57.634;18.310;2022-07-06T14:57:50;20.90;99.90
12386;DHT22;6257;57.634;18.310;2022-07-06T15:00:17;21.10;99.90
12386;DHT22;6257;57.634;18.310;2022-07-06T15:02:44;21.20;99.90
12386;DHT22;6257;57.634;18.310;2022-07-06T15:05:13;21.10;99.90
12386;DHT22;6257;57.634;18.310;2022-07-06T15:07:40;20.90;99.90
12386;DHT22;6257;57.634;18.310;2022-07-06T15:10:08;20.80;99.90
12386;DHT22;6257;57.634;18.310;2022-07-06T15:12:36;20.70;99.90
12386;DHT22;6257;57.634;18.310;2022-07-06T15:15:03;20.60;99.90
12386;DHT22;6257;57.634;18.310;2022-07-06T15:17:30;20.60;99.90
12386;DHT22;6257;57.634;18.310;2022-07-06T15:19:59;20.60;99.90
12386;DHT22;6257;57.634;18.310;2022-07-06T15:22:27;20.60;99.90
12386;DHT22;6257;57.634;18.310;2022-07-06T15:24:54;20.60;99.90
12386;DHT22;6257;57.634;18.310;2022-07-06T15:27:21;20.50;99.90
12386;DHT22;6257;57.634;18.310;2022-07-06T15:29:48;20.50;99.90
12386;DHT22;6257;57.634;18.310;2022-07-06T15:32:15;20.40;99.90
12386;DHT22;6257;57.634;18.310;2022-07-06T15:34:42;20.40;99.90
12386;DHT22;6257;57.634;18.310;2022-07-06T15:37:09;20.40;99.90
12386;DHT22;6257;57.634;18.310;2022-07-06T15:39:38;20.30;99.90